createdAt,value
2023-05-06T00:00:56.037Z,26.05
2023-05-06T00:03:58.543Z,20.02
2023-05-06T00:07:01.102Z,26.60
2023-05-06T00:10:04.253Z,28.58
2023-05-06T00:13:06.512Z,30.13
2023-05-06T00:16:08.850Z,25.38
2023-05-06T00:19:11.001Z,25.27
2023-05-06T00:22:13.110Z,20.30
2023-05-06T00:25:15.379Z,20.77
2023-05-06T00:28:18.501Z,19.60
2023-05-06T00:31:20.651Z,25.20
2023-05-06T00:34:23.522Z,14.48
2023-05-06T00:37:25.658Z,17.52
2023-05-06T00:40:27.771Z,20.27
2023-05-06T00:43:29.957Z,16.95
2023-05-06T00:46:32.305Z,20.08
2023-05-06T00:49:34.620Z,23.58
2023-05-06T00:52:37.044Z,24.42
2023-05-06T00:55:40.754Z,20.90
2023-05-06T00:58:42.935Z,26.45
2023-05-06T01:01:45.058Z,21.65
2023-05-06T01:04:47.440Z,26.33
2023-05-06T01:07:58.491Z,25.23
2023-05-06T01:11:17.150Z,25.77
2023-05-06T01:14:53.065Z,16.02
2023-05-06T01:17:58.907Z,32.03
2023-05-06T01:21:02.081Z,18.98
2023-05-06T01:24:04.351Z,13.93
2023-05-06T01:27:08.243Z,21.52
2023-05-06T01:30:10.745Z,20.25
2023-05-06T01:33:38.705Z,23.67
2023-05-06T01:37:07.059Z,18.73
2023-05-06T01:40:10.308Z,33.30
2023-05-06T01:43:14.633Z,20.57
2023-05-06T01:46:20.402Z,22.65
2023-05-06T01:49:26.601Z,30.70
2023-05-06T01:52:29.026Z,25.75
2023-05-06T01:55:32.314Z,21.65
2023-05-06T01:58:34.615Z,22.50
2023-05-06T02:01:37.949Z,32.50
2023-05-06T02:04:40.105Z,27.50
2023-05-06T02:07:42.092Z,23.27
2023-05-06T02:10:45.090Z,33.72
2023-05-06T02:13:47.246Z,21.58
2023-05-06T02:16:49.239Z,24.08
2023-05-06T02:19:51.534Z,25.42
2023-05-06T02:22:53.726Z,22.75
2023-05-06T02:25:58.206Z,21.17
2023-05-06T02:29:00.554Z,30.63
2023-05-06T02:32:02.830Z,26.38
2023-05-06T02:35:06.394Z,22.15
2023-05-06T02:38:08.893Z,25.67
2023-05-06T02:41:11.046Z,16.95
2023-05-06T02:44:13.586Z,17.02
2023-05-06T02:47:16.119Z,28.73
2023-05-06T02:50:18.497Z,21.23
2023-05-06T02:53:20.652Z,16.38
2023-05-06T02:56:22.851Z,24.73
2023-05-06T02:59:24.961Z,14.48
2023-05-06T03:02:28.094Z,22.30
2023-05-06T03:05:30.288Z,18.55
2023-05-06T03:08:32.806Z,16.25
2023-05-06T03:11:35.752Z,28.30
2023-05-06T03:14:37.844Z,19.80
2023-05-06T03:17:40.274Z,20.35
2023-05-06T03:20:42.621Z,16.23
2023-05-06T03:23:46.486Z,25.92
2023-05-06T03:26:55.990Z,18.30
2023-05-06T03:30:02.156Z,22.25
2023-05-06T03:33:04.301Z,19.27
2023-05-06T03:36:06.887Z,25.40
2023-05-06T03:39:09.213Z,15.82
2023-05-06T03:42:11.373Z,22.45
2023-05-06T03:45:13.703Z,15.13
2023-05-06T03:48:15.980Z,11.15
2023-05-06T03:51:18.330Z,14.10
2023-05-06T03:54:20.694Z,15.60
2023-05-06T03:57:22.837Z,12.63
2023-05-06T04:00:25.540Z,21.35
2023-05-06T04:03:27.706Z,23.17
2023-05-06T04:06:29.866Z,12.07
2023-05-06T04:09:33.539Z,16.52
2023-05-06T04:12:36.031Z,17.52
2023-05-06T04:15:45.255Z,15.27
2023-05-06T04:18:58.519Z,14.88
2023-05-06T04:22:02.636Z,17.40
2023-05-06T04:25:05.583Z,20.45
2023-05-06T04:28:07.637Z,31.98
2023-05-06T04:31:10.706Z,17.55
2023-05-06T04:34:12.839Z,16.02
2023-05-06T04:37:15.451Z,20.83
2023-05-06T04:40:18.055Z,15.90
2023-05-06T04:43:20.216Z,15.57
2023-05-06T04:46:23.892Z,15.07
2023-05-06T04:49:26.297Z,22.10
2023-05-06T04:52:28.592Z,16.20
2023-05-06T04:55:30.828Z,19.48
2023-05-06T04:58:33.579Z,17.10
2023-05-06T05:01:36.283Z,16.58
2023-05-06T05:04:38.578Z,26.60
2023-05-06T05:07:40.724Z,19.40
2023-05-06T05:10:46.037Z,18.95
2023-05-06T05:13:48.148Z,13.00
2023-05-06T05:16:50.373Z,30.63
2023-05-06T05:19:53.005Z,13.18
2023-05-06T05:22:55.345Z,16.58
2023-05-06T05:25:57.429Z,28.63
2023-05-06T05:28:59.620Z,23.65
2023-05-06T05:32:02.660Z,23.40
2023-05-06T05:35:05.481Z,23.35
2023-05-06T05:38:07.576Z,22.40
2023-05-06T05:41:09.807Z,15.52
2023-05-06T05:44:18.834Z,12.88
2023-05-06T05:47:20.857Z,16.35
2023-05-06T05:50:23.332Z,15.40
2023-05-06T05:53:25.929Z,21.50
2023-05-06T05:56:28.156Z,23.13
2023-05-06T05:59:30.242Z,19.75
2023-05-06T06:02:34.666Z,22.45
2023-05-06T06:05:37.450Z,15.77
2023-05-06T06:08:39.916Z,20.17
2023-05-06T06:11:42.220Z,17.77
2023-05-06T06:14:48.373Z,20.45
2023-05-06T06:17:50.565Z,28.40
2023-05-06T06:20:53.470Z,20.75
2023-05-06T06:23:55.787Z,25.65
2023-05-06T06:26:58.108Z,13.48
2023-05-06T06:30:00.193Z,17.15
2023-05-06T06:33:02.535Z,20.95
2023-05-06T06:36:04.711Z,20.98
2023-05-06T06:39:06.989Z,15.77
2023-05-06T06:42:09.028Z,20.83
2023-05-06T06:45:11.932Z,19.42
2023-05-06T06:48:14.593Z,15.18
2023-05-06T06:51:16.740Z,15.15
2023-05-06T06:54:19.082Z,26.08
2023-05-06T06:57:21.178Z,20.90
2023-05-06T07:00:23.399Z,16.80
2023-05-06T07:03:25.589Z,15.40
2023-05-06T07:06:27.924Z,19.95
2023-05-06T07:09:29.960Z,12.98
2023-05-06T07:12:32.104Z,14.82
2023-05-06T07:15:34.167Z,23.05
2023-05-06T07:18:36.562Z,14.07
2023-05-06T07:21:38.658Z,16.65
2023-05-06T07:24:40.933Z,12.73
2023-05-06T07:27:43.212Z,20.02
2023-05-06T07:30:45.944Z,14.77
2023-05-06T07:33:48.414Z,13.90
2023-05-06T07:36:50.724Z,13.77
2023-05-06T07:39:52.742Z,11.77
2023-05-06T07:42:54.839Z,19.25
2023-05-06T07:46:02.742Z,18.67
2023-05-06T07:49:04.972Z,18.98
2023-05-06T07:52:07.039Z,16.35
2023-05-06T07:55:10.337Z,15.77
2023-05-06T07:58:12.661Z,14.13
2023-05-06T08:01:14.770Z,15.75
2023-05-06T08:04:17.434Z,15.02
2023-05-06T08:07:20.083Z,12.10
2023-05-06T08:10:25.035Z,12.05
2023-05-06T08:13:28.283Z,14.52
2023-05-06T08:16:30.434Z,18.33
2023-05-06T08:19:32.689Z,17.55
2023-05-06T08:22:34.804Z,11.57
2023-05-06T08:25:36.826Z,12.02
2023-05-06T08:28:38.880Z,15.95
2023-05-06T08:31:40.916Z,16.13
2023-05-06T08:34:43.027Z,14.38
2023-05-06T08:37:45.300Z,16.65
2023-05-06T08:40:49.420Z,11.07
2023-05-06T08:43:54.030Z,11.43
2023-05-06T08:46:56.334Z,13.23
2023-05-06T08:49:58.693Z,12.70
2023-05-06T08:53:01.934Z,16.33
2023-05-06T08:56:08.770Z,10.60
2023-05-06T08:59:13.831Z,9.45
2023-05-06T09:02:15.955Z,9.63
2023-05-06T09:05:19.037Z,14.32
2023-05-06T09:08:21.504Z,16.67
2023-05-06T09:11:28.646Z,16.95
2023-05-06T09:14:31.000Z,13.65
2023-05-06T09:17:33.753Z,11.52
2023-05-06T09:20:40.357Z,12.02
2023-05-06T09:23:42.598Z,8.27
2023-05-06T09:26:45.903Z,16.15
2023-05-06T09:30:21.006Z,9.60
2023-05-06T09:33:23.288Z,12.48
2023-05-06T09:36:27.691Z,12.35
2023-05-06T09:39:29.980Z,9.90
2023-05-06T09:42:32.529Z,13.63
2023-05-06T09:45:35.433Z,12.55
2023-05-06T09:48:37.973Z,10.88
2023-05-06T09:51:42.648Z,8.35
2023-05-06T09:54:47.039Z,8.60
2023-05-06T09:57:50.670Z,5.07
2023-05-06T10:00:54.003Z,12.73
2023-05-06T10:03:58.286Z,11.98
2023-05-06T10:07:01.741Z,9.38
2023-05-06T10:10:07.144Z,16.10
2023-05-06T10:13:10.149Z,11.48
2023-05-06T10:16:14.609Z,14.93
2023-05-06T10:19:23.253Z,14.07
2023-05-06T10:23:02.528Z,9.00
2023-05-06T10:26:10.662Z,10.43
2023-05-06T10:29:14.179Z,11.20
2023-05-06T10:32:17.962Z,6.88
2023-05-06T10:35:46.840Z,8.95
2023-05-06T10:38:56.777Z,7.05
2023-05-06T10:41:59.053Z,6.78
2023-05-06T10:45:05.947Z,5.93
2023-05-06T10:48:09.118Z,9.68
2023-05-06T10:51:17.084Z,7.13
2023-05-06T10:54:19.071Z,6.10
2023-05-06T10:57:26.855Z,5.97
2023-05-06T11:00:34.553Z,7.65
2023-05-06T11:03:36.949Z,7.63
2023-05-06T11:06:47.989Z,7.88
2023-05-06T11:09:57.211Z,6.57
2023-05-06T11:13:19.333Z,7.70
2023-05-06T11:16:47.409Z,7.05
2023-05-06T11:19:49.502Z,3.45
2023-05-06T11:22:52.947Z,7.05
2023-05-06T11:25:58.478Z,6.85
2023-05-06T11:29:02.674Z,5.18
2023-05-06T11:32:19.283Z,10.90
2023-05-06T11:35:23.066Z,7.55
2023-05-06T11:38:46.430Z,6.35
2023-05-06T11:41:48.873Z,5.47
2023-05-06T11:44:53.350Z,9.20
2023-05-06T11:47:55.569Z,6.25
2023-05-06T11:50:58.009Z,10.90
2023-05-06T11:54:07.763Z,8.27
2023-05-06T11:57:10.380Z,9.32
2023-05-06T12:00:13.517Z,10.05
2023-05-06T12:03:15.817Z,10.20
2023-05-06T12:06:19.248Z,6.68
2023-05-06T12:09:23.068Z,7.75
2023-05-06T12:12:27.651Z,4.90
2023-05-06T12:15:30.484Z,5.78
2023-05-06T12:18:33.137Z,6.88
2023-05-06T12:21:38.584Z,5.88
2023-05-06T12:24:41.632Z,9.45
2023-05-06T12:27:45.874Z,10.82
2023-05-06T12:30:48.364Z,9.60
2023-05-06T12:33:50.781Z,9.10
2023-05-06T12:36:53.018Z,12.13
2023-05-06T12:39:58.446Z,6.57
2023-05-06T12:43:01.512Z,10.63
2023-05-06T12:46:08.070Z,6.20
2023-05-06T12:49:10.441Z,6.35
2023-05-06T12:52:12.604Z,10.30
2023-05-06T12:55:14.723Z,9.32
2023-05-06T12:58:19.099Z,8.73
2023-05-06T13:01:22.680Z,9.77
2023-05-06T13:04:25.073Z,11.35
2023-05-06T13:07:27.445Z,7.72
2023-05-06T13:10:29.526Z,8.75
2023-05-06T13:13:31.652Z,11.13
2023-05-06T13:16:35.426Z,8.13
2023-05-06T13:19:37.774Z,10.50
2023-05-06T13:22:53.261Z,6.13
2023-05-06T13:26:04.095Z,12.55
2023-05-06T13:29:07.493Z,11.60
2023-05-06T13:32:09.669Z,13.85
2023-05-06T13:35:12.062Z,8.80
2023-05-06T13:38:14.420Z,12.30
2023-05-06T13:41:16.624Z,14.60
2023-05-06T13:44:22.402Z,28.98
2023-05-06T13:47:25.349Z,11.35
2023-05-06T13:50:27.444Z,10.77
2023-05-06T13:53:30.165Z,18.00
2023-05-06T13:56:34.275Z,22.95
2023-05-06T13:59:36.374Z,19.23
2023-05-06T14:02:39.103Z,9.93
2023-05-06T14:05:41.666Z,18.38
2023-05-06T14:08:43.824Z,18.73
2023-05-06T14:11:46.164Z,11.25
2023-05-06T14:14:48.411Z,11.20
2023-05-06T14:17:50.508Z,8.68
2023-05-06T14:20:52.701Z,5.20
2023-05-06T14:23:54.881Z,5.22
2023-05-06T14:26:57.083Z,5.75
2023-05-06T14:29:59.627Z,10.68
2023-05-06T14:33:02.075Z,7.18
2023-05-06T14:36:04.950Z,7.10
2023-05-06T14:39:07.707Z,10.85
2023-05-06T14:42:10.407Z,9.23
2023-05-06T14:45:13.715Z,8.55
2023-05-06T14:48:16.156Z,5.05
2023-05-06T14:51:18.460Z,9.88
2023-05-06T14:54:20.778Z,9.50
2023-05-06T14:57:23.965Z,7.30
2023-05-06T15:00:27.934Z,8.40
2023-05-06T15:03:30.488Z,6.75
2023-05-06T15:06:33.674Z,6.32
2023-05-06T15:09:35.862Z,8.00
2023-05-06T15:12:38.057Z,7.05
2023-05-06T15:15:40.810Z,14.93
2023-05-06T15:18:45.176Z,12.43
2023-05-06T15:21:47.543Z,5.33
2023-05-06T15:24:53.376Z,10.02
2023-05-06T15:27:55.699Z,9.32
2023-05-06T15:30:57.883Z,9.07
2023-05-06T15:34:00.727Z,9.65
2023-05-06T15:37:03.120Z,6.83
2023-05-06T15:40:10.818Z,12.20
2023-05-06T15:43:17.815Z,10.63
2023-05-06T15:46:29.305Z,10.35
2023-05-06T15:52:36.963Z,8.40
2023-05-06T15:55:46.435Z,6.97
2023-05-06T15:58:51.626Z,10.02
2023-05-06T16:04:59.683Z,12.02
2023-05-06T16:08:01.894Z,10.32
2023-05-06T16:11:05.905Z,12.97
2023-05-06T16:14:08.080Z,17.10
2023-05-06T16:17:10.150Z,6.30
2023-05-06T16:20:13.026Z,17.05
2023-05-06T16:23:16.496Z,9.47
2023-05-06T16:26:18.763Z,11.38
2023-05-06T16:29:21.093Z,18.83
2023-05-06T16:32:23.778Z,15.48
2023-05-06T16:35:26.152Z,9.77
2023-05-06T16:38:29.232Z,10.02
2023-05-06T16:41:32.532Z,11.30
2023-05-06T16:44:37.570Z,14.27
2023-05-06T16:47:40.213Z,14.48
2023-05-06T16:50:43.110Z,13.20
2023-05-06T16:53:45.279Z,11.43
2023-05-06T16:56:52.436Z,11.52
2023-05-06T16:59:55.415Z,14.55
2023-05-06T17:02:57.851Z,14.70
2023-05-06T17:06:00.364Z,17.23
2023-05-06T17:09:02.470Z,16.10
2023-05-06T17:12:05.163Z,16.27
2023-05-06T17:15:08.270Z,11.43
2023-05-06T17:18:10.843Z,14.13
2023-05-06T17:21:13.119Z,14.55
2023-05-06T17:24:15.243Z,10.52
2023-05-06T17:27:20.238Z,21.10
2023-05-06T17:30:22.860Z,18.48
2023-05-06T17:33:25.168Z,20.58
2023-05-06T17:36:27.663Z,15.63
2023-05-06T17:39:29.717Z,11.70
2023-05-06T17:42:31.808Z,14.90
2023-05-06T17:45:33.973Z,8.88
2023-05-06T17:48:36.248Z,18.33
2023-05-06T17:51:38.407Z,18.05
2023-05-06T17:54:40.605Z,11.40
2023-05-06T17:57:42.971Z,14.27
2023-05-06T18:00:45.574Z,14.15
2023-05-06T18:03:47.839Z,17.42
2023-05-06T18:06:49.991Z,9.00
2023-05-06T18:09:52.345Z,17.17
2023-05-06T18:12:55.640Z,10.73
2023-05-06T18:15:58.165Z,10.68
2023-05-06T18:19:04.855Z,14.60
2023-05-06T18:22:07.021Z,17.00
2023-05-06T18:25:10.019Z,23.08
2023-05-06T18:28:12.673Z,14.83
2023-05-06T18:31:15.215Z,13.70
2023-05-06T18:34:20.111Z,13.40
2023-05-06T18:37:22.197Z,12.43
2023-05-06T18:40:24.294Z,25.95
2023-05-06T18:43:26.349Z,18.38
2023-05-06T18:46:28.818Z,15.95
2023-05-06T18:49:31.558Z,13.88
2023-05-06T18:52:36.136Z,13.45
2023-05-06T18:55:38.228Z,12.70
2023-05-06T18:58:40.775Z,19.23
2023-05-06T19:01:42.880Z,16.88
2023-05-06T19:04:45.047Z,18.73
2023-05-06T19:07:47.092Z,17.17
2023-05-06T19:10:49.569Z,18.30
2023-05-06T19:13:52.492Z,20.35
2023-05-06T19:16:54.773Z,20.20
2023-05-06T19:19:57.100Z,15.77
2023-05-06T19:22:59.355Z,17.15
2023-05-06T19:26:01.539Z,16.58
2023-05-06T19:29:04.705Z,22.80
2023-05-06T19:32:06.854Z,18.17
2023-05-06T19:35:09.692Z,20.52
2023-05-06T19:38:12.000Z,27.77
2023-05-06T19:41:14.155Z,19.95
2023-05-06T19:44:16.272Z,22.75
2023-05-06T19:47:18.328Z,24.83
2023-05-06T19:50:20.696Z,30.00
2023-05-06T19:53:24.096Z,25.83
2023-05-06T19:56:26.168Z,23.43
2023-05-06T19:59:28.491Z,30.05
2023-05-06T20:02:33.066Z,23.33
2023-05-06T20:05:36.331Z,24.13
2023-05-06T20:08:38.420Z,25.38
2023-05-06T20:11:40.574Z,17.70
2023-05-06T20:14:42.684Z,24.75
2023-05-06T20:17:45.051Z,20.00
2023-05-06T20:20:47.401Z,30.58
2023-05-06T20:23:49.894Z,31.45
2023-05-06T20:26:52.132Z,29.10
2023-05-06T20:29:54.303Z,22.30
2023-05-06T20:32:56.513Z,26.92
2023-05-06T20:35:58.754Z,30.42
2023-05-06T20:39:01.153Z,24.15
2023-05-06T20:42:03.379Z,22.48
2023-05-06T20:45:06.247Z,25.35
2023-05-06T20:48:08.431Z,32.13
2023-05-06T20:51:10.818Z,25.92
2023-05-06T20:54:13.158Z,21.95
2023-05-06T20:57:16.602Z,30.15
2023-05-06T21:00:19.458Z,26.40
2023-05-06T21:03:21.689Z,29.92
2023-05-06T21:06:23.983Z,27.92
2023-05-06T21:09:29.502Z,23.05
2023-05-06T21:12:33.061Z,19.75
2023-05-06T21:15:35.536Z,34.03
2023-05-06T21:18:37.659Z,31.25
2023-05-06T21:21:40.008Z,28.60
2023-05-06T21:24:42.125Z,35.70
2023-05-06T21:27:45.225Z,34.50
2023-05-06T21:30:47.533Z,36.70
2023-05-06T21:33:55.017Z,26.60
2023-05-06T21:36:57.842Z,22.40
2023-05-06T21:40:02.824Z,22.35
2023-05-06T21:43:05.022Z,27.67
2023-05-06T21:46:07.135Z,26.20
2023-05-06T21:49:09.385Z,31.02
2023-05-06T21:52:11.521Z,31.60
2023-05-06T21:55:13.966Z,27.92
2023-05-06T21:58:16.067Z,32.10
2023-05-06T22:01:19.465Z,24.40
2023-05-06T22:04:21.818Z,17.05
2023-05-06T22:07:24.012Z,32.42
2023-05-06T22:10:26.477Z,24.92
2023-05-06T22:13:28.686Z,21.02
2023-05-06T22:16:30.842Z,36.28
2023-05-06T22:19:32.975Z,35.17
2023-05-06T22:22:35.469Z,21.15
2023-05-06T22:25:38.266Z,25.45
2023-05-06T22:28:40.421Z,23.63
2023-05-06T22:31:42.684Z,24.15
2023-05-06T22:34:45.033Z,22.77
2023-05-06T22:37:47.317Z,33.85
2023-05-06T22:40:49.449Z,25.10
2023-05-06T22:43:51.605Z,31.90
2023-05-06T22:46:54.979Z,22.63
2023-05-06T22:49:57.357Z,28.95
2023-05-06T22:53:04.824Z,17.30
2023-05-06T22:56:12.733Z,17.98
2023-05-06T22:59:15.045Z,18.60
2023-05-06T23:02:17.272Z,24.17
2023-05-06T23:05:19.364Z,16.88
2023-05-06T23:08:21.652Z,19.10
2023-05-06T23:11:23.729Z,17.27
2023-05-06T23:14:25.923Z,16.15
2023-05-06T23:17:28.060Z,16.48
2023-05-06T23:20:30.336Z,25.08
2023-05-06T23:23:33.089Z,14.52
2023-05-06T23:26:35.300Z,19.67
2023-05-06T23:29:37.375Z,20.45
2023-05-06T23:32:40.099Z,18.13
2023-05-06T23:35:42.242Z,26.50
2023-05-06T23:38:44.510Z,13.32
2023-05-06T23:41:46.523Z,16.10
2023-05-06T23:44:51.437Z,25.30
2023-05-06T23:47:54.458Z,16.35
2023-05-06T23:50:56.668Z,16.60
2023-05-06T23:53:58.721Z,13.02
2023-05-06T23:57:03.110Z,12.65
